| Time | Avg. Air Temp | Dew Point | Avg. Rel Humidity | Avg. 2 Min Wind Speed | Max Gust Velocity | MGV Time | MGV Direction | Avg. Spot Wind Velocity |
|---|---|---|---|---|---|---|---|---|
| 2026-08-30 22:40:00 | 3° C | 2° C | 100% | 5 km/h | 8 km/h | 22:37:00 | NW | 5 km/h |
| 21:40:00 | 3° C | 3° C | 100% | 9 km/h | 14 km/h | 21:37:00 | W | 11 km/h |
| 20:40:00 | 3° C | 2° C | 100% | 12 km/h | 16 km/h | 20:36:00 | W | 14 km/h |
| 19:40:00 | 3° C | 3° C | 100% | 7 km/h | 13 km/h | 19:36:00 | W | 9 km/h |
| 18:40:00 | 3° C | 3° C | 100% | 8 km/h | 13 km/h | 18:37:00 | W | 10 km/h |
| 17:40:00 | 2° C | 2° C | 100% | 10 km/h | 15 km/h | 17:38:00 | W | 11 km/h |
| 16:40:00 | 2° C | 2° C | 100% | 10 km/h | 12 km/h | 16:38:00 | SW | 9 km/h |
| 15:40:00 | 2° C | 2° C | 100% | 12 km/h | 16 km/h | 15:36:00 | SW | 12 km/h |
| 14:40:00 | 2° C | 2° C | 100% | 8 km/h | 14 km/h | 14:36:00 | W | 7 km/h |
| 13:40:00 | 2° C | 2° C | 100% | 11 km/h | 18 km/h | 13:36:00 | W | 10 km/h |
| 12:40:00 | 2° C | 2° C | 100% | 8 km/h | 21 km/h | 12:37:00 | W | 10 km/h |
| 11:40:00 | 2° C | 2° C | 100% | 14 km/h | 19 km/h | 11:40:00 | W | 14 km/h |
| 10:40:00 | 2° C | 2° C | 100% | 17 km/h | 22 km/h | 10:39:00 | NW | 17 km/h |
| 09:40:00 | 2° C | 2° C | 100% | 12 km/h | 16 km/h | 09:40:00 | NW | 10 km/h |
| 08:40:00 | 1° C | 2° C | 100% | 15 km/h | 21 km/h | 08:38:00 | NW | 14 km/h |
| 07:40:00 | 1° C | 1° C | 100% | 9 km/h | 19 km/h | 07:36:00 | N | 13 km/h |
| 06:40:00 | 1° C | 1° C | 100% | 13 km/h | 20 km/h | 06:37:00 | NW | 17 km/h |
| 05:40:00 | 1° C | 1° C | 100% | 19 km/h | 25 km/h | 05:39:00 | NW | 15 km/h |
| 04:40:00 | 1° C | 1° C | 100% | 13 km/h | 19 km/h | 04:38:00 | NW | 13 km/h |
| 03:40:00 | 1° C | 1° C | 100% | 23 km/h | 26 km/h | 03:38:00 | NW | 20 km/h |
| 02:40:00 | 1° C | 1° C | 100% | 14 km/h | 23 km/h | 02:39:00 | W | 13 km/h |
| 01:40:00 | 1° C | 1° C | 100% | 16 km/h | 21 km/h | 01:39:00 | NW | 17 km/h |
| 00:40:00 | 1° C | 1° C | 100% | 11 km/h | 17 km/h | 00:36:00 | NW | 12 km/h |
| 23:40:00 | 1° C | 1° C | 100% | 8 km/h | 14 km/h | 23:38:00 | W | 9 km/h |
Subpeak Weather
| Time | Avg. Air Temp | Dew Point | Avg. Rel Humidity | Avg. 2 Min Wind Speed | Max Gust Velocity | MGV Time | MGV Direction | Avg. Spot Wind Velocity |
|---|---|---|---|---|---|---|---|---|
| 2026-08-30 22:40:00 | 3° C | 2° C | 100% | 5 km/h | 8 km/h | 22:37:00 | NW | 5 km/h |
| 22:35:00 | 3° C | 3° C | 100% | 2 km/h | 8 km/h | 22:33:00 | NW | 2 km/h |
| 22:30:00 | 3° C | 3° C | 100% | 4 km/h | 6 km/h | 22:30:00 | NW | 3 km/h |
| 22:25:00 | 3° C | 3° C | 100% | 3 km/h | 8 km/h | 22:22:00 | N | 3 km/h |
| 22:20:00 | 3° C | 2° C | 100% | 8 km/h | 14 km/h | 22:16:00 | NW | 8 km/h |
| 22:15:00 | 3° C | 3° C | 100% | 5 km/h | 10 km/h | 22:11:00 | W | 5 km/h |
| 22:10:00 | 3° C | 3° C | 100% | 7 km/h | 11 km/h | 22:09:00 | W | 8 km/h |
| 22:05:00 | 3° C | 3° C | 100% | 7 km/h | 9 km/h | 22:04:00 | NW | 6 km/h |
| 22:00:00 | 3° C | 3° C | 100% | 7 km/h | 13 km/h | 21:56:00 | NW | 9 km/h |
| 21:55:00 | 3° C | 3° C | 100% | 9 km/h | 13 km/h | 21:53:00 | W | 8 km/h |
| 21:50:00 | 3° C | 3° C | 100% | 9 km/h | 13 km/h | 21:50:00 | W | 8 km/h |
| 21:45:00 | 3° C | 3° C | 100% | 12 km/h | 14 km/h | 21:42:00 | NW | 12 km/h |
| 21:40:00 | 3° C | 3° C | 100% | 9 km/h | 14 km/h | 21:37:00 | W | 11 km/h |




